Terminal Aerodrome Forecast
Issued by NWS

Home | Current Version | Previous Version | Text Only | Print | Product List | Glossary On
Versions: 1 2 3 4 5 6 7 8 9 10 11 12 13 14 15 16 17 18 19 20 21 22 23 24 25 26
000
FTPA31 PHFO 192300
TAFLIH
TAF
PHLI 192339Z 2000/2024 10008KT P6SM FEW025 SCT040
     FM200400 05006KT P6SM FEW025 SCT040
     FM200800 29006KT P6SM SCT020 BKN040
     FM202000 06008KT P6SM FEW025 SCT040=

USA.gov is the U.S. government's official web portal to all federal, state and local government web resources and services.